createdAt,value
2018-10-21T00:00:35.097Z,22.1
2018-10-21T00:01:35.521Z,22
2018-10-21T00:02:34.071Z,22
2018-10-21T00:03:42.988Z,22
2018-10-21T00:04:43.669Z,22
2018-10-21T00:05:42.784Z,22
2018-10-21T00:06:44.332Z,22
2018-10-21T00:07:50.686Z,22
2018-10-21T00:08:50.591Z,22
2018-10-21T00:09:50.190Z,22
2018-10-21T00:10:49.598Z,22
2018-10-21T00:11:48.115Z,21.9
2018-10-21T00:12:54.165Z,22
2018-10-21T00:13:57.059Z,22
2018-10-21T00:14:56.980Z,21.9
2018-10-21T00:15:56.821Z,21.9
2018-10-21T00:16:58.954Z,21.9
2018-10-21T00:17:58.459Z,21.9
2018-10-21T00:18:58.156Z,21.9
2018-10-21T00:19:58.669Z,21.9
2018-10-21T00:21:01.692Z,21.9
2018-10-21T00:22:02.955Z,21.9
2018-10-21T00:23:05.461Z,21.9
2018-10-21T00:24:04.019Z,21.9
2018-10-21T00:25:06.849Z,21.9
2018-10-21T00:26:08.796Z,21.9
2018-10-21T00:27:08.748Z,21.9
2018-10-21T00:28:10.139Z,21.9
2018-10-21T00:29:25.278Z,21.9
2018-10-21T00:30:23.944Z,21.8
2018-10-21T00:31:23.490Z,21.8
2018-10-21T00:32:24.436Z,21.8
2018-10-21T00:33:23.152Z,21.8
2018-10-21T00:34:27.658Z,21.8
2018-10-21T00:35:29.207Z,21.8
2018-10-21T00:36:29.817Z,21.8
2018-10-21T00:37:30.425Z,21.8
2018-10-21T00:38:33.883Z,21.8
2018-10-21T00:39:39.718Z,21.8
2018-10-21T00:40:39.684Z,21.8
2018-10-21T00:41:38.259Z,21.8
2018-10-21T00:42:37.603Z,21.8
2018-10-21T00:43:36.673Z,21.8
2018-10-21T00:44:39.098Z,21.8
2018-10-21T00:45:39.525Z,21.8
2018-10-21T00:46:40.331Z,21.8
2018-10-21T00:47:42.388Z,21.8
2018-10-21T00:48:43.667Z,21.8
2018-10-21T00:49:45.116Z,21.8
2018-10-21T00:50:46.832Z,21.7
2018-10-21T00:51:47.782Z,21.7
2018-10-21T00:52:48.998Z,21.7
2018-10-21T00:53:50.584Z,21.7
2018-10-21T00:54:51.197Z,21.7
2018-10-21T00:55:55.161Z,21.7
2018-10-21T00:56:56.426Z,21.7
2018-10-21T00:57:55.031Z,21.7
2018-10-21T00:58:55.588Z,21.7
2018-10-21T00:59:55.956Z,21.7
2018-10-21T01:01:04.514Z,21.7
2018-10-21T01:02:04.339Z,21.7
2018-10-21T01:03:07.986Z,21.7
2018-10-21T01:04:16.329Z,21.7
2018-10-21T01:05:15.346Z,21.7
2018-10-21T01:06:14.510Z,21.7
2018-10-21T01:07:24.617Z,21.7
2018-10-21T01:08:23.189Z,21.7
2018-10-21T01:09:22.417Z,21.7
2018-10-21T01:10:23.477Z,21.7
2018-10-21T01:11:28.046Z,21.6
2018-10-21T01:12:30.327Z,21.7
2018-10-21T01:13:34.270Z,21.6
2018-10-21T01:14:35.538Z,21.6
2018-10-21T01:15:35.028Z,21.6
2018-10-21T01:16:37.735Z,21.6
2018-10-21T01:17:38.405Z,21.6
2018-10-21T01:18:40.539Z,21.6
2018-10-21T01:19:42.097Z,21.6
2018-10-21T01:20:46.543Z,21.6
2018-10-21T01:21:54.630Z,21.6
2018-10-21T01:22:54.726Z,21.6
2018-10-21T01:23:55.375Z,21.6
2018-10-21T01:24:54.722Z,21.6
2018-10-21T01:25:55.118Z,21.6
2018-10-21T01:26:58.310Z,21.6
2018-10-21T01:28:04.145Z,21.6
2018-10-21T01:29:04.851Z,21.6
2018-10-21T01:30:05.020Z,21.6
2018-10-21T01:31:09.402Z,21.6
2018-10-21T01:32:10.253Z,21.6
2018-10-21T01:33:11.717Z,21.6
2018-10-21T01:34:13.348Z,21.5
2018-10-21T01:35:14.722Z,21.6
2018-10-21T01:36:13.187Z,21.5
2018-10-21T01:37:18.249Z,21.5
2018-10-21T01:38:19.543Z,21.5
2018-10-21T01:39:21.411Z,21.5
2018-10-21T01:40:21.837Z,21.5
2018-10-21T01:41:20.506Z,21.5
2018-10-21T01:42:19.744Z,21.5
2018-10-21T01:43:21.764Z,21.5
2018-10-21T01:44:20.566Z,21.5
2018-10-21T01:45:18.941Z,21.5
2018-10-21T01:46:27.219Z,21.5
2018-10-21T01:47:28.449Z,21.5
2018-10-21T01:48:27.577Z,21.5
2018-10-21T01:49:29.057Z,21.5
2018-10-21T01:50:30.337Z,21.5
2018-10-21T01:51:30.337Z,21.5
2018-10-21T01:52:29.487Z,21.5
2018-10-21T01:53:40.130Z,21.4
2018-10-21T01:54:40.022Z,21.5
2018-10-21T01:55:40.189Z,21.5
2018-10-21T01:56:43.447Z,21.4
2018-10-21T01:57:42.316Z,21.4
2018-10-21T01:58:43.659Z,21.4
2018-10-21T01:59:44.888Z,21.4
2018-10-21T02:00:48.755Z,21.4
2018-10-21T02:01:49.351Z,21.4
2018-10-21T02:02:57.353Z,21.4
2018-10-21T02:04:11.132Z,21.4
2018-10-21T02:05:12.080Z,21.4
2018-10-21T02:06:12.215Z,21.4
2018-10-21T02:07:11.013Z,21.4
2018-10-21T02:08:10.669Z,21.5
2018-10-21T02:09:10.377Z,21.4
2018-10-21T02:10:10.132Z,21.4
2018-10-21T02:11:08.446Z,21.4
2018-10-21T02:12:11.705Z,21.4
2018-10-21T02:13:15.745Z,21.4
2018-10-21T02:14:14.675Z,21.4
2018-10-21T02:15:14.284Z,21.4
2018-10-21T02:16:24.153Z,21.4
2018-10-21T02:17:23.163Z,21.4
2018-10-21T02:18:24.031Z,21.4
2018-10-21T02:19:23.110Z,21.4
2018-10-21T02:20:23.126Z,21.4
2018-10-21T02:21:22.320Z,21.4
2018-10-21T02:22:24.512Z,21.4
2018-10-21T02:23:31.602Z,21.4
2018-10-21T02:24:34.823Z,21.4
2018-10-21T02:25:34.001Z,21.4
2018-10-21T02:26:32.958Z,21.4
2018-10-21T02:27:34.370Z,21.4
2018-10-21T02:28:33.010Z,21.4
2018-10-21T02:29:33.916Z,21.3
2018-10-21T02:30:33.395Z,21.3
2018-10-21T02:31:31.855Z,21.3
2018-10-21T02:32:32.276Z,21.4
2018-10-21T02:33:33.081Z,21.3
2018-10-21T02:34:33.979Z,21.3
2018-10-21T02:35:33.238Z,21.3
2018-10-21T02:36:39.288Z,21.3
2018-10-21T02:37:40.042Z,21.3
2018-10-21T02:38:41.467Z,21.3
2018-10-21T02:39:41.694Z,21.3
2018-10-21T02:40:42.612Z,21.3
2018-10-21T02:41:44.533Z,21.3
2018-10-21T02:42:43.918Z,21.3
2018-10-21T02:43:55.570Z,21.3
2018-10-21T02:44:56.539Z,21.3
2018-10-21T02:45:57.185Z,21.3
2018-10-21T02:46:55.697Z,21.3
2018-10-21T02:47:55.661Z,21.3
2018-10-21T02:48:58.531Z,21.3
2018-10-21T02:50:02.357Z,21.3
2018-10-21T02:51:05.007Z,21.3
2018-10-21T02:52:05.534Z,21.3
2018-10-21T02:53:04.084Z,21.3
2018-10-21T02:54:04.606Z,21.3
2018-10-21T02:55:06.079Z,21.3
2018-10-21T02:56:04.418Z,21.3
2018-10-21T02:57:09.312Z,21.3
2018-10-21T02:58:14.477Z,21.2
2018-10-21T02:59:13.700Z,21.2
2018-10-21T03:00:19.751Z,21.2
2018-10-21T03:01:20.827Z,21.2
2018-10-21T03:02:21.153Z,21.2
2018-10-21T03:03:19.712Z,21.2
2018-10-21T03:04:21.436Z,21.2
2018-10-21T03:05:21.234Z,21.2
2018-10-21T03:06:23.754Z,21.2
2018-10-21T03:07:22.647Z,21.2
2018-10-21T03:08:21.517Z,21.2
2018-10-21T03:09:24.905Z,21.2
2018-10-21T03:10:27.570Z,21.2
2018-10-21T03:11:35.479Z,21.2
2018-10-21T03:12:35.380Z,21.2
2018-10-21T03:13:35.291Z,21.2
2018-10-21T03:14:39.669Z,21.2
2018-10-21T03:15:39.838Z,21.2
2018-10-21T03:16:39.850Z,21.2
2018-10-21T03:17:38.912Z,21.2
2018-10-21T03:18:40.807Z,21.2
2018-10-21T03:19:44.031Z,21.2
2018-10-21T03:20:47.434Z,21.2
2018-10-21T03:21:54.009Z,21.2
2018-10-21T03:22:54.577Z,21.2
2018-10-21T03:23:53.012Z,21.2
2018-10-21T03:24:51.823Z,21.2
2018-10-21T03:25:51.800Z,21.1
2018-10-21T03:26:52.794Z,21.1
2018-10-21T03:27:51.032Z,21.1
2018-10-21T03:28:53.145Z,21.1
2018-10-21T03:29:52.968Z,21.1
2018-10-21T03:30:53.434Z,21.1
2018-10-21T03:31:52.450Z,21.1
2018-10-21T03:32:54.556Z,21.1
2018-10-21T03:33:54.196Z,21.1
2018-10-21T03:34:56.678Z,21.1
2018-10-21T03:35:58.609Z,21.1
2018-10-21T03:37:03.920Z,21.1
2018-10-21T03:38:04.981Z,21.1
2018-10-21T03:39:09.921Z,21.1
2018-10-21T03:40:08.926Z,21.1
2018-10-21T03:41:08.290Z,21.1
2018-10-21T03:41:47.163Z,21.1
2018-10-21T03:42:46.551Z,21.1
2018-10-21T03:43:45.008Z,21.1
2018-10-21T03:44:47.278Z,21.1
2018-10-21T03:45:47.964Z,21.1
2018-10-21T03:46:48.116Z,21.1
2018-10-21T03:47:48.095Z,21.1
2018-10-21T03:48:49.297Z,21.1
2018-10-21T03:49:50.282Z,21.1
2018-10-21T03:50:51.345Z,21.1
2018-10-21T03:51:49.882Z,21.1
2018-10-21T03:52:48.855Z,21.1
2018-10-21T03:53:49.657Z,21
2018-10-21T03:54:52.144Z,21.1
2018-10-21T03:55:56.112Z,21.1
2018-10-21T03:56:56.992Z,21.1
2018-10-21T03:57:56.673Z,21
2018-10-21T03:58:57.569Z,21.1
2018-10-21T03:59:58.687Z,21.1
2018-10-21T04:00:59.518Z,21.1
2018-10-21T04:01:58.607Z,21.1
2018-10-21T04:02:56.898Z,21.1
2018-10-21T04:03:55.603Z,21.1
2018-10-21T04:04:55.873Z,21.1
2018-10-21T04:05:54.437Z,21
2018-10-21T04:06:57.997Z,21
2018-10-21T04:08:00.387Z,21
2018-10-21T04:09:06.898Z,21
2018-10-21T04:10:06.961Z,21
2018-10-21T04:11:06.344Z,21
2018-10-21T04:12:05.420Z,21
2018-10-21T04:13:04.282Z,21
2018-10-21T04:14:02.556Z,21
2018-10-21T04:15:07.980Z,21
2018-10-21T04:16:06.413Z,21
2018-10-21T04:17:05.840Z,21
2018-10-21T04:18:04.157Z,21
2018-10-21T04:19:10.866Z,21
2018-10-21T04:20:09.204Z,21
2018-10-21T04:21:09.792Z,21
2018-10-21T04:22:14.123Z,21
2018-10-21T04:23:13.471Z,21
2018-10-21T04:24:13.793Z,21
2018-10-21T04:25:12.881Z,21
2018-10-21T04:26:11.711Z,21
2018-10-21T04:27:16.691Z,21
2018-10-21T04:28:15.698Z,21
2018-10-21T04:29:17.729Z,21
2018-10-21T04:30:18.880Z,21
2018-10-21T04:31:19.809Z,21
2018-10-21T04:32:20.517Z,21
2018-10-21T04:33:19.203Z,21
2018-10-21T04:34:19.562Z,21
2018-10-21T04:35:18.954Z,21
2018-10-21T04:36:28.291Z,21
2018-10-21T04:37:29.310Z,21
2018-10-21T04:38:34.754Z,21
2018-10-21T04:39:37.513Z,21
2018-10-21T04:40:37.205Z,20.9
2018-10-21T04:41:36.132Z,20.9
2018-10-21T04:42:35.294Z,20.9
2018-10-21T04:43:37.216Z,20.9
2018-10-21T04:44:36.311Z,21
2018-10-21T04:45:34.883Z,20.9
2018-10-21T04:46:34.253Z,21
2018-10-21T04:47:33.021Z,20.9
2018-10-21T04:48:33.972Z,20.9
2018-10-21T04:49:32.562Z,21
2018-10-21T04:50:37.392Z,20.9
2018-10-21T04:51:35.630Z,20.9
2018-10-21T04:52:35.087Z,20.9
2018-10-21T04:53:33.377Z,20.9
2018-10-21T04:54:33.542Z,20.9
2018-10-21T04:55:49.177Z,20.9
2018-10-21T04:56:47.694Z,20.9
2018-10-21T04:57:45.927Z,20.9
2018-10-21T04:58:48.924Z,20.9
2018-10-21T04:59:47.809Z,20.9
2018-10-21T05:00:46.974Z,20.9
2018-10-21T05:01:48.005Z,20.9
2018-10-21T05:02:50.021Z,20.9
2018-10-21T05:03:50.196Z,20.9
2018-10-21T05:04:49.428Z,20.9
2018-10-21T05:05:51.195Z,20.9
2018-10-21T05:06:51.887Z,20.9
2018-10-21T05:07:51.688Z,20.9
2018-10-21T05:08:55.431Z,20.9
2018-10-21T05:09:54.586Z,20.8
2018-10-21T05:10:54.110Z,20.8
2018-10-21T05:11:52.811Z,20.8
2018-10-21T05:12:57.463Z,20.9
2018-10-21T05:13:57.077Z,20.9
2018-10-21T05:14:55.492Z,20.9
2018-10-21T05:15:53.792Z,20.9
2018-10-21T05:16:53.760Z,20.8
2018-10-21T05:17:51.924Z,20.9
2018-10-21T05:19:02.541Z,20.9
2018-10-21T05:20:02.777Z,20.8
2018-10-21T05:21:04.467Z,20.9
2018-10-21T05:22:04.542Z,20.8
2018-10-21T05:23:03.607Z,20.8
2018-10-21T05:24:03.541Z,20.8
2018-10-21T05:25:12.536Z,20.8
2018-10-21T05:26:13.187Z,20.8
2018-10-21T05:27:11.904Z,20.8
2018-10-21T05:28:11.035Z,20.8
2018-10-21T05:29:10.236Z,20.8
2018-10-21T05:30:09.295Z,20.8
2018-10-21T05:31:10.720Z,20.8
2018-10-21T05:32:09.756Z,20.8
2018-10-21T05:33:08.078Z,20.8
2018-10-21T05:34:07.156Z,20.8
2018-10-21T05:35:08.083Z,20.8
2018-10-21T05:36:08.559Z,20.8
2018-10-21T05:37:12.361Z,20.8
2018-10-21T05:38:16.433Z,20.8
2018-10-21T05:39:15.247Z,20.8
2018-10-21T05:40:17.204Z,20.8
2018-10-21T05:41:18.025Z,20.8
2018-10-21T05:42:18.211Z,20.8
2018-10-21T05:43:17.189Z,20.8
2018-10-21T05:44:16.073Z,20.8
2018-10-21T05:45:14.414Z,20.8
2018-10-21T05:46:14.269Z,20.8
2018-10-21T05:47:11.306Z,20.8
2018-10-21T05:48:18.770Z,20.8
2018-10-21T05:49:20.830Z,20.8
2018-10-21T05:50:26.888Z,20.8
2018-10-21T05:51:28.501Z,20.8
2018-10-21T05:52:29.069Z,20.8
2018-10-21T05:53:30.004Z,20.7
2018-10-21T05:54:29.410Z,20.8
2018-10-21T05:55:31.299Z,20.7
2018-10-21T05:56:29.579Z,20.8
2018-10-21T05:57:27.945Z,20.7
2018-10-21T05:58:30.059Z,20.8
2018-10-21T05:59:36.477Z,20.7
2018-10-21T06:00:35.593Z,20.7
2018-10-21T06:01:41.408Z,20.7
2018-10-21T06:02:42.761Z,20.7
2018-10-21T06:03:41.804Z,20.7
2018-10-21T06:04:42.309Z,20.7
2018-10-21T06:05:40.442Z,20.7
2018-10-21T06:06:40.655Z,20.7
2018-10-21T06:07:38.750Z,20.7
2018-10-21T06:08:37.643Z,20.7
2018-10-21T06:09:41.819Z,20.7
2018-10-21T06:10:40.464Z,20.7
2018-10-21T06:11:40.649Z,20.7
2018-10-21T06:12:41.945Z,20.7
2018-10-21T06:13:46.521Z,20.7
2018-10-21T06:14:52.494Z,20.7
2018-10-21T06:15:59.333Z,20.7
2018-10-21T06:16:59.390Z,20.7
2018-10-21T06:18:01.104Z,20.7
2018-10-21T06:19:05.429Z,20.7
2018-10-21T06:20:02.544Z,20.7
2018-10-21T06:21:03.563Z,20.7
2018-10-21T06:22:05.898Z,20.7
2018-10-21T06:23:13.115Z,20.7
2018-10-21T06:24:14.537Z,20.7
2018-10-21T06:25:12.542Z,20.7
2018-10-21T06:26:11.927Z,20.7
2018-10-21T06:27:11.062Z,20.7
2018-10-21T06:28:10.091Z,20.7
2018-10-21T06:29:08.212Z,20.7
2018-10-21T06:30:07.314Z,20.7
2018-10-21T06:31:05.713Z,20.7
2018-10-21T06:32:04.935Z,20.7
2018-10-21T06:33:09.755Z,20.7
2018-10-21T06:34:10.736Z,20.7
2018-10-21T06:35:09.117Z,20.7
2018-10-21T06:36:07.622Z,20.7
2018-10-21T06:37:09.508Z,20.7
2018-10-21T06:38:08.506Z,20.7
2018-10-21T06:39:06.512Z,20.7
2018-10-21T06:40:05.346Z,20.7
2018-10-21T06:41:03.801Z,20.7
2018-10-21T06:42:07.751Z,20.7
2018-10-21T06:43:10.162Z,20.7
2018-10-21T06:44:08.774Z,20.7
2018-10-21T06:45:07.245Z,20.7
2018-10-21T06:46:06.834Z,20.7
2018-10-21T06:47:05.716Z,20.7
2018-10-21T06:48:11.110Z,20.7
2018-10-21T06:49:17.913Z,20.6
2018-10-21T06:50:28.296Z,20.7
2018-10-21T06:51:27.409Z,20.6
2018-10-21T06:52:29.601Z,20.6
2018-10-21T06:53:28.062Z,20.7
2018-10-21T06:54:31.475Z,20.6
2018-10-21T06:55:40.623Z,20.6
2018-10-21T06:56:39.345Z,20.6
2018-10-21T06:57:38.106Z,20.6
2018-10-21T06:58:40.656Z,20.6
2018-10-21T06:59:40.067Z,20.6
2018-10-21T07:00:38.758Z,20.6
2018-10-21T07:01:38.703Z,20.6
2018-10-21T07:02:44.456Z,20.6
2018-10-21T07:03:46.684Z,20.6
2018-10-21T07:04:48.556Z,20.6
2018-10-21T07:05:54.757Z,20.6
2018-10-21T07:06:52.949Z,20.6
2018-10-21T07:07:52.741Z,20.6
2018-10-21T07:08:56.324Z,20.6
2018-10-21T07:09:57.382Z,20.6
2018-10-21T07:10:58.333Z,20.6
2018-10-21T07:11:58.303Z,20.6
2018-10-21T07:12:59.971Z,20.6
2018-10-21T07:13:58.842Z,20.6
2018-10-21T07:15:03.194Z,20.6
2018-10-21T07:16:05.466Z,20.6
2018-10-21T07:17:05.922Z,20.6
2018-10-21T07:18:07.642Z,20.6
2018-10-21T07:19:06.643Z,20.6
2018-10-21T07:20:08.491Z,20.6
2018-10-21T07:21:08.289Z,20.6
2018-10-21T07:22:13.953Z,20.6
2018-10-21T07:23:12.026Z,20.6
2018-10-21T07:24:13.091Z,20.6
2018-10-21T07:25:19.043Z,20.6
2018-10-21T07:26:22.679Z,20.6
2018-10-21T07:27:21.280Z,20.6
2018-10-21T07:28:19.974Z,20.6
2018-10-21T07:29:25.697Z,20.5
2018-10-21T07:30:26.671Z,20.6
2018-10-21T07:31:26.529Z,20.5
2018-10-21T07:32:25.861Z,20.5
2018-10-21T07:33:26.393Z,20.5
2018-10-21T07:34:25.643Z,20.6
2018-10-21T07:35:24.691Z,20.6
2018-10-21T07:36:23.800Z,20.5
2018-10-21T07:37:22.638Z,20.6
2018-10-21T07:38:21.202Z,20.5
2018-10-21T07:39:20.202Z,20.6
2018-10-21T07:40:20.351Z,20.6
2018-10-21T07:41:22.653Z,20.5
2018-10-21T07:42:31.838Z,20.6
2018-10-21T07:43:32.376Z,20.5
2018-10-21T07:44:31.011Z,20.5
2018-10-21T07:45:36.786Z,20.6
2018-10-21T07:46:44.843Z,20.5
2018-10-21T07:47:46.968Z,20.5
2018-10-21T07:48:45.708Z,20.5
2018-10-21T07:49:43.921Z,20.5
2018-10-21T07:50:55.283Z,20.5
2018-10-21T07:51:55.154Z,20.5
2018-10-21T07:52:55.658Z,20.5
2018-10-21T07:53:54.286Z,20.5
2018-10-21T07:54:53.952Z,20.5
2018-10-21T07:55:54.159Z,20.5
2018-10-21T07:56:57.119Z,20.5
2018-10-21T07:57:58.688Z,20.5
2018-10-21T07:58:57.464Z,20.5
2018-10-21T07:59:59.598Z,20.5
2018-10-21T08:01:01.816Z,20.5
2018-10-21T08:02:00.810Z,20.5
2018-10-21T08:03:00.484Z,20.5
2018-10-21T08:04:00.321Z,20.5
2018-10-21T08:05:03.570Z,20.5
2018-10-21T08:06:01.756Z,20.5
2018-10-21T08:07:00.892Z,20.5
2018-10-21T08:08:02.592Z,20.5
2018-10-21T08:09:00.680Z,20.5
2018-10-21T08:10:00.708Z,20.5
2018-10-21T08:11:01.553Z,20.5
2018-10-21T08:12:00.392Z,20.5
2018-10-21T08:12:59.112Z,20.5
2018-10-21T08:13:59.731Z,20.5
2018-10-21T08:15:01.430Z,20.5
2018-10-21T08:15:59.699Z,20.5
2018-10-21T08:16:58.180Z,20.5
2018-10-21T08:18:01.248Z,20.5
2018-10-21T08:19:03.713Z,20.5
2018-10-21T08:20:02.572Z,20.5
2018-10-21T08:21:14.043Z,20.5
2018-10-21T08:22:16.233Z,20.5
2018-10-21T08:23:14.441Z,20.5
2018-10-21T08:24:14.237Z,20.5
2018-10-21T08:25:12.896Z,20.5
2018-10-21T08:26:11.676Z,20.5
2018-10-21T08:27:11.697Z,20.5
2018-10-21T08:28:12.843Z,20.5
2018-10-21T08:29:11.648Z,20.5
2018-10-21T08:30:09.726Z,20.5
2018-10-21T08:31:13.201Z,20.5
2018-10-21T08:32:18.255Z,20.5
2018-10-21T08:33:20.069Z,20.5
2018-10-21T08:34:22.674Z,20.5
2018-10-21T08:35:21.325Z,20.5
2018-10-21T08:36:23.280Z,20.5
2018-10-21T08:37:22.535Z,20.5
2018-10-21T08:38:27.731Z,20.5
2018-10-21T08:39:30.857Z,20.5
2018-10-21T08:40:29.296Z,20.5
2018-10-21T08:41:33.158Z,20.5
2018-10-21T08:42:33.720Z,20.5
2018-10-21T08:43:33.966Z,20.5
2018-10-21T08:44:38.667Z,20.5
2018-10-21T08:45:44.814Z,20.5
2018-10-21T08:46:47.633Z,20.5
2018-10-21T08:47:46.085Z,20.5
2018-10-21T08:48:46.440Z,20.5
2018-10-21T08:49:45.412Z,20.5
2018-10-21T08:50:47.406Z,20.5
2018-10-21T08:51:47.691Z,20.5
2018-10-21T08:52:59.898Z,20.5
2018-10-21T08:54:02.380Z,20.5
2018-10-21T08:55:03.635Z,20.5
2018-10-21T08:56:10.255Z,20.5
2018-10-21T08:57:14.880Z,20.5
2018-10-21T08:58:15.319Z,20.6
2018-10-21T08:59:16.936Z,20.5
2018-10-21T09:00:22.426Z,20.6
2018-10-21T09:01:23.651Z,20.5
2018-10-21T09:02:27.355Z,20.6
2018-10-21T09:03:26.499Z,20.6
2018-10-21T09:04:24.613Z,20.5
2018-10-21T09:05:24.464Z,20.6
2018-10-21T09:06:23.122Z,20.6
2018-10-21T09:07:28.048Z,20.6
2018-10-21T09:08:31.682Z,20.6
2018-10-21T09:09:31.017Z,20.6
2018-10-21T09:10:30.520Z,20.6
2018-10-21T09:11:30.211Z,20.6
2018-10-21T09:12:26.169Z,20.6
2018-10-21T09:13:27.128Z,20.6
2018-10-21T09:14:32.104Z,20.6
2018-10-21T09:15:38.208Z,20.6
2018-10-21T09:16:36.454Z,20.6
2018-10-21T09:17:36.215Z,20.6
2018-10-21T09:18:36.288Z,20.6
2018-10-21T09:19:37.542Z,20.6
2018-10-21T09:20:39.637Z,20.6
2018-10-21T09:21:39.733Z,20.6
2018-10-21T09:22:39.324Z,20.6
2018-10-21T09:23:39.073Z,20.6
2018-10-21T09:24:47.709Z,20.6
2018-10-21T09:25:46.419Z,20.5
2018-10-21T09:26:51.610Z,20.5
2018-10-21T09:27:51.059Z,20.4
2018-10-21T09:28:51.301Z,20.3
2018-10-21T09:29:49.473Z,20.3
2018-10-21T09:30:48.139Z,20.2
2018-10-21T09:31:47.344Z,20.2
2018-10-21T09:32:46.516Z,20.1
2018-10-21T09:33:46.523Z,20.1
2018-10-21T09:34:44.355Z,20
2018-10-21T09:35:45.927Z,19.9
2018-10-21T09:36:48.156Z,19.9
2018-10-21T09:37:47.174Z,19.8
2018-10-21T09:38:48.873Z,19.8
2018-10-21T09:39:48.291Z,19.7
2018-10-21T09:40:46.555Z,19.7
2018-10-21T09:41:46.647Z,19.7
2018-10-21T09:42:44.835Z,19.7
2018-10-21T09:43:42.867Z,19.6
2018-10-21T09:44:42.713Z,19.7
2018-10-21T09:45:41.117Z,19.6
2018-10-21T09:46:39.310Z,19.7
2018-10-21T09:47:48.960Z,19.7
2018-10-21T09:48:49.016Z,19.7
2018-10-21T09:49:47.922Z,19.8
2018-10-21T09:50:52.009Z,19.8
2018-10-21T09:51:52.312Z,19.8
2018-10-21T09:52:53.145Z,19.9
2018-10-21T09:53:52.264Z,19.9
2018-10-21T09:54:56.494Z,20
2018-10-21T09:55:57.224Z,20
2018-10-21T09:56:57.229Z,20
2018-10-21T09:57:55.620Z,20.1
2018-10-21T09:58:54.130Z,20.1
2018-10-21T09:59:54.128Z,20.1
2018-10-21T10:00:55.894Z,20.2
2018-10-21T10:01:53.920Z,20.2
2018-10-21T10:02:52.179Z,20.3
2018-10-21T10:03:54.290Z,20.3
2018-10-21T10:04:54.068Z,20.3
2018-10-21T10:05:54.172Z,20.3
2018-10-21T10:06:57.286Z,20.4
2018-10-21T10:07:55.770Z,20.4
2018-10-21T10:08:55.538Z,20.4
2018-10-21T10:09:54.522Z,20.4
2018-10-21T10:10:55.260Z,20.5
2018-10-21T10:11:56.639Z,20.5
2018-10-21T10:12:57.839Z,20.5
2018-10-21T10:13:56.662Z,20.5
2018-10-21T10:15:01.188Z,20.6
2018-10-21T10:16:07.821Z,20.6
2018-10-21T10:17:19.606Z,20.6
2018-10-21T10:18:04.868Z,20.6
2018-10-21T10:19:05.164Z,20.7
2018-10-21T10:20:08.436Z,20.6
2018-10-21T10:21:08.839Z,20.7
2018-10-21T10:22:10.789Z,20.7
2018-10-21T10:23:14.558Z,20.7
2018-10-21T10:24:15.709Z,20.7
2018-10-21T10:25:14.660Z,20.7
2018-10-21T10:26:13.349Z,20.8
2018-10-21T10:27:11.606Z,20.8
2018-10-21T10:28:12.809Z,20.8
2018-10-21T10:29:16.199Z,20.8
2018-10-21T10:30:18.215Z,20.9
2018-10-21T10:31:19.201Z,20.9
2018-10-21T10:32:19.940Z,20.9
2018-10-21T10:33:18.661Z,20.9
2018-10-21T10:34:19.382Z,21
2018-10-21T10:35:25.248Z,21
2018-10-21T10:36:27.988Z,21
2018-10-21T10:37:31.807Z,21
2018-10-21T10:38:31.005Z,21
2018-10-21T10:39:29.342Z,21
2018-10-21T10:40:30.365Z,21.1
2018-10-21T10:41:28.939Z,21.1
2018-10-21T10:42:31.598Z,21.1
2018-10-21T10:43:33.926Z,21.1
2018-10-21T10:44:37.442Z,21.1
2018-10-21T10:45:37.875Z,21.1
2018-10-21T10:46:36.519Z,21.1
2018-10-21T10:47:39.183Z,21.1
2018-10-21T10:48:37.743Z,21.2
2018-10-21T10:49:45.874Z,21.2
2018-10-21T10:50:45.258Z,21.2
2018-10-21T10:51:46.701Z,21.2
2018-10-21T10:52:45.238Z,21.2
2018-10-21T10:53:45.451Z,21.2
2018-10-21T10:54:46.412Z,21.2
2018-10-21T10:55:45.075Z,21.2
2018-10-21T10:56:49.746Z,21.2
2018-10-21T10:57:48.036Z,21.2
2018-10-21T10:58:48.677Z,21.2
2018-10-21T10:59:51.507Z,21.2
2018-10-21T11:00:49.748Z,21.3
2018-10-21T11:01:53.150Z,21.3
2018-10-21T11:02:53.278Z,21.3
2018-10-21T11:03:53.094Z,21.3
2018-10-21T11:04:53.522Z,21.3
2018-10-21T11:05:51.860Z,21.3
2018-10-21T11:06:53.143Z,21.3
2018-10-21T11:07:52.539Z,21.3
2018-10-21T11:09:05.513Z,21.3
2018-10-21T11:10:15.527Z,21.3
2018-10-21T11:11:13.839Z,21.3
2018-10-21T11:12:13.715Z,21.3
2018-10-21T11:13:13.442Z,21.3
2018-10-21T11:14:13.078Z,21.3
2018-10-21T11:15:12.460Z,21.3
2018-10-21T11:16:12.946Z,21.3
2018-10-21T11:17:11.928Z,21.3
2018-10-21T11:18:10.157Z,21.3
2018-10-21T11:19:09.069Z,21.4
2018-10-21T11:20:08.521Z,21.3
2018-10-21T11:21:07.778Z,21.4
2018-10-21T11:22:07.007Z,21.4
2018-10-21T11:23:07.841Z,21.3
2018-10-21T11:24:07.619Z,21.3
2018-10-21T11:25:07.669Z,21.4
2018-10-21T11:26:07.085Z,21.4
2018-10-21T11:27:11.270Z,21.4
2018-10-21T11:28:10.378Z,21.4
2018-10-21T11:29:14.463Z,21.4
2018-10-21T11:30:15.776Z,21.4
2018-10-21T11:31:14.754Z,21.4
2018-10-21T11:32:16.764Z,21.4
2018-10-21T11:33:15.817Z,21.4
2018-10-21T11:34:17.141Z,21.4
2018-10-21T11:35:13.524Z,21.4
2018-10-21T11:36:19.312Z,21.4
2018-10-21T11:37:17.641Z,21.4
2018-10-21T11:38:16.168Z,21.4
2018-10-21T11:39:22.675Z,21.4
2018-10-21T11:40:21.063Z,21.4
2018-10-21T11:41:20.250Z,21.4
2018-10-21T11:42:19.082Z,21.4
2018-10-21T11:43:17.831Z,21.4
2018-10-21T11:44:18.721Z,21.4
2018-10-21T11:45:17.259Z,21.4
2018-10-21T11:46:18.984Z,21.4
2018-10-21T11:47:18.338Z,21.4
2018-10-21T11:48:19.719Z,21.4
2018-10-21T11:49:18.209Z,21.4
2018-10-21T11:50:24.229Z,21.4
2018-10-21T11:51:22.605Z,21.4
2018-10-21T11:52:21.904Z,21.4
2018-10-21T11:53:21.720Z,21.4
2018-10-21T11:54:23.707Z,21.4
2018-10-21T11:55:26.428Z,21.5
2018-10-21T11:56:28.209Z,21.4
2018-10-21T11:57:26.537Z,21.5
2018-10-21T11:58:25.317Z,21.5
2018-10-21T11:59:25.491Z,21.5
2018-10-21T12:00:25.246Z,21.5
2018-10-21T12:01:23.971Z,21.6
2018-10-21T12:02:23.512Z,21.6
2018-10-21T12:03:22.648Z,21.6
2018-10-21T12:04:22.019Z,21.6
2018-10-21T12:05:23.774Z,21.7
2018-10-21T12:06:27.854Z,21.7
2018-10-21T12:07:28.747Z,21.7
2018-10-21T12:08:27.220Z,21.8
2018-10-21T12:09:34.924Z,21.8
2018-10-21T12:10:38.262Z,21.9
2018-10-21T12:11:38.101Z,21.9
2018-10-21T12:12:39.948Z,21.9
2018-10-21T12:13:40.359Z,22
2018-10-21T12:14:41.072Z,22
2018-10-21T12:15:44.533Z,22.1
2018-10-21T12:16:43.849Z,22.1
2018-10-21T12:17:45.674Z,22.1
2018-10-21T12:18:45.396Z,22.2
2018-10-21T12:19:45.421Z,22.2
2018-10-21T12:20:44.311Z,22.2
2018-10-21T12:21:42.989Z,22.3
2018-10-21T12:22:42.922Z,22.3
2018-10-21T12:23:42.069Z,22.3
2018-10-21T12:24:42.397Z,22.4
2018-10-21T12:25:42.337Z,22.4
2018-10-21T12:26:49.044Z,22.5
2018-10-21T12:27:48.781Z,22.5
2018-10-21T12:28:48.220Z,22.5
2018-10-21T12:29:49.542Z,22.6
2018-10-21T12:31:00.040Z,22.6
2018-10-21T12:32:01.850Z,22.6
2018-10-21T12:33:02.682Z,22.7
2018-10-21T12:34:02.633Z,22.7
2018-10-21T12:35:09.584Z,22.7
2018-10-21T12:36:12.036Z,22.7
2018-10-21T12:37:12.441Z,22.8
2018-10-21T12:38:11.470Z,22.8
2018-10-21T12:39:11.704Z,22.8
2018-10-21T12:40:11.516Z,22.8
2018-10-21T12:41:12.310Z,22.9
2018-10-21T12:42:11.824Z,22.9
2018-10-21T12:43:14.202Z,22.9
2018-10-21T12:44:13.896Z,23
2018-10-21T12:45:13.278Z,23
2018-10-21T12:46:15.628Z,23
2018-10-21T12:47:15.272Z,23.1
2018-10-21T12:48:17.093Z,23.1
2018-10-21T12:49:16.152Z,23.1
2018-10-21T12:50:17.680Z,23.1
2018-10-21T12:51:18.287Z,23.2
2018-10-21T12:52:19.964Z,23.2
2018-10-21T12:53:20.612Z,23.2
2018-10-21T12:54:23.643Z,23.3
2018-10-21T12:55:22.924Z,23.3
2018-10-21T12:56:23.549Z,23.3
2018-10-21T12:57:23.923Z,23.3
2018-10-21T12:58:24.773Z,23.4
2018-10-21T12:59:27.416Z,23.4
2018-10-21T13:00:28.017Z,23.4
2018-10-21T13:01:30.464Z,23.4
2018-10-21T13:02:30.324Z,23.4
2018-10-21T13:03:29.928Z,23.4
2018-10-21T13:04:34.978Z,23.4
2018-10-21T13:05:36.267Z,23.4
2018-10-21T13:06:35.442Z,23.5
2018-10-21T13:07:39.233Z,23.5
2018-10-21T13:08:38.762Z,23.5
2018-10-21T13:09:38.289Z,23.5
2018-10-21T13:10:41.040Z,23.5
2018-10-21T13:11:42.745Z,23.5
2018-10-21T13:12:46.167Z,23.5
2018-10-21T13:13:47.383Z,23.5
2018-10-21T13:14:50.050Z,23.5
2018-10-21T13:15:51.837Z,23.5
2018-10-21T13:16:53.164Z,23.5
2018-10-21T13:17:52.859Z,23.4
2018-10-21T13:18:53.064Z,23.4
2018-10-21T13:19:58.114Z,23.4
2018-10-21T13:20:58.703Z,23.4
2018-10-21T13:21:57.775Z,23.4
2018-10-21T13:22:57.595Z,23.4
2018-10-21T13:24:00.583Z,23.4
2018-10-21T13:25:00.000Z,23.4
2018-10-21T13:26:00.038Z,23.4
2018-10-21T13:26:59.207Z,23.4
2018-10-21T13:28:00.919Z,23.4
2018-10-21T13:29:06.808Z,23.4
2018-10-21T13:30:09.655Z,23.4
2018-10-21T13:31:09.693Z,23.4
2018-10-21T13:32:09.368Z,23.4
2018-10-21T13:33:09.999Z,23.3
2018-10-21T13:34:13.460Z,23.3
2018-10-21T13:35:14.495Z,23.3
2018-10-21T13:36:14.647Z,23.3
2018-10-21T13:37:16.502Z,23.3